createdAt,value
2023-05-23T00:03:50.235Z,100664.91
2023-05-23T00:07:51.765Z,100655.41
2023-05-23T00:11:53.249Z,100660.31
2023-05-23T00:15:54.759Z,100656.94
2023-05-23T00:19:56.406Z,100644.78
2023-05-23T00:23:58.211Z,100646.44
2023-05-23T00:28:00.996Z,100642.63
2023-05-23T00:32:02.467Z,100632.59
2023-05-23T00:36:04.032Z,100641.28
2023-05-23T00:40:06.219Z,100627.09
2023-05-23T00:44:09.894Z,100628.47
2023-05-23T00:48:12.255Z,100627.81
2023-05-23T00:52:14.991Z,100623.34
2023-05-23T00:56:16.858Z,100614.13
2023-05-23T01:00:20.580Z,100609.75
2023-05-23T01:04:26.642Z,100608.13
2023-05-23T01:08:29.441Z,100603.78
2023-05-23T01:12:51.058Z,100602.16
2023-05-23T01:17:11.697Z,100597.56
2023-05-23T01:21:17.391Z,100600.31
2023-05-23T01:25:37.261Z,100602.31
2023-05-23T01:29:45.375Z,100609.97
2023-05-23T01:33:50.187Z,100607.94
2023-05-23T01:37:56.071Z,100598.72
2023-05-23T01:41:57.580Z,100589.47
2023-05-23T01:46:00.535Z,100579.06
2023-05-23T01:50:02.989Z,100577.81
2023-05-23T01:54:04.897Z,100579.47
2023-05-23T01:58:06.489Z,100575.66
2023-05-23T02:02:08.075Z,100592.78
2023-05-23T02:06:10.733Z,100596.66
2023-05-23T02:10:12.677Z,100605.84
2023-05-23T02:14:14.231Z,100600.63
2023-05-23T02:18:15.750Z,100582.19
2023-05-23T02:22:17.226Z,100586.28
2023-05-23T02:26:19.040Z,100580.13
2023-05-23T02:30:20.627Z,100577.63
2023-05-23T02:34:22.190Z,100581.31
2023-05-23T02:38:23.763Z,100574.81
2023-05-23T02:42:25.322Z,100575.53
2023-05-23T02:46:26.874Z,100576.44
2023-05-23T02:50:28.419Z,100572.03
2023-05-23T02:54:29.922Z,100572.66
2023-05-23T02:58:32.140Z,100569.06
2023-05-23T03:02:33.707Z,100572.31
2023-05-23T03:06:37.074Z,100581.31
2023-05-23T03:10:38.756Z,100577.94
2023-05-23T03:14:40.545Z,100590.63
2023-05-23T03:18:42.313Z,100597.66
2023-05-23T03:22:45.521Z,100597.19
2023-05-23T03:26:47.213Z,100583.13
2023-05-23T03:30:48.740Z,100569.66
2023-05-23T03:34:50.300Z,100569.22
2023-05-23T03:38:53.131Z,100556.78
2023-05-23T03:43:08.608Z,100554.81
2023-05-23T03:47:10.206Z,100528.81
2023-05-23T03:51:13.426Z,100538.06
2023-05-23T03:55:15.001Z,100530.44
2023-05-23T03:59:17.362Z,100525.97
2023-05-23T04:03:20.056Z,100539.63
2023-05-23T04:07:21.684Z,100569.97
2023-05-23T04:11:23.792Z,100584.72
2023-05-23T04:15:25.795Z,100573.00
2023-05-23T04:19:27.438Z,100569.00
2023-05-23T04:23:28.957Z,100569.75
2023-05-23T04:27:30.868Z,100562.91
2023-05-23T04:31:34.089Z,100561.63
2023-05-23T04:35:39.033Z,100560.50
2023-05-23T04:39:40.826Z,100560.91
2023-05-23T04:43:42.909Z,100561.69
2023-05-23T04:47:44.862Z,100557.81
2023-05-23T04:51:46.964Z,100562.69
2023-05-23T04:55:48.775Z,100572.13
2023-05-23T04:59:50.617Z,100564.16
2023-05-23T05:03:52.579Z,100564.19
2023-05-23T05:07:54.220Z,100560.59
2023-05-23T05:11:55.876Z,100558.19
2023-05-23T05:15:57.427Z,100550.59
2023-05-23T05:19:58.908Z,100553.84
2023-05-23T05:24:00.380Z,100554.69
2023-05-23T05:28:06.133Z,100556.22
2023-05-23T05:32:09.033Z,100565.06
2023-05-23T05:36:10.608Z,100578.25
2023-05-23T05:40:12.577Z,100570.69
2023-05-23T05:44:14.122Z,100580.34
2023-05-23T05:48:16.632Z,100578.69
2023-05-23T05:52:18.108Z,100580.34
2023-05-23T05:56:20.357Z,100565.50
2023-05-23T06:00:21.919Z,100566.28
2023-05-23T06:04:23.392Z,100571.44
2023-05-23T06:08:25.170Z,100562.19
2023-05-23T06:12:26.683Z,100564.59
2023-05-23T06:16:28.244Z,100559.28
2023-05-23T06:20:29.785Z,100551.97
2023-05-23T06:24:31.282Z,100551.41
2023-05-23T06:28:32.689Z,100567.47
2023-05-23T06:32:34.256Z,100570.59
2023-05-23T06:36:35.911Z,100573.38
2023-05-23T06:40:37.372Z,100568.50
2023-05-23T06:44:38.866Z,100570.81
2023-05-23T06:48:40.314Z,100574.34
2023-05-23T06:52:42.884Z,100577.38
2023-05-23T06:56:44.539Z,100574.72
2023-05-23T07:00:46.356Z,100569.59
2023-05-23T07:04:47.883Z,100574.22
2023-05-23T07:08:49.384Z,100568.91
2023-05-23T07:12:50.905Z,100569.78
2023-05-23T07:16:52.425Z,100577.88
2023-05-23T07:20:53.957Z,100570.91
2023-05-23T07:24:55.449Z,100573.69
2023-05-23T07:28:56.983Z,100567.69
2023-05-23T07:32:58.728Z,100570.88
2023-05-23T07:37:00.373Z,100569.16
2023-05-23T07:41:11.684Z,100564.25
2023-05-23T07:45:14.106Z,100572.28
2023-05-23T07:49:15.631Z,100572.22
2023-05-23T07:53:17.063Z,100571.22
2023-05-23T07:57:18.586Z,100580.63
2023-05-23T08:01:20.254Z,100583.31
2023-05-23T08:05:22.863Z,100593.44
2023-05-23T08:09:24.610Z,100585.97
2023-05-23T08:13:26.628Z,100582.63
2023-05-23T08:17:28.877Z,100583.81
2023-05-23T08:21:30.600Z,100586.66
2023-05-23T08:25:32.314Z,100593.31
2023-05-23T08:29:35.268Z,100593.13
2023-05-23T08:33:36.979Z,100600.44
2023-05-23T08:37:38.502Z,100602.16
2023-05-23T08:41:40.144Z,100620.38
2023-05-23T08:45:42.533Z,100618.84
2023-05-23T08:49:45.967Z,100610.28
2023-05-23T08:53:48.283Z,100618.06
2023-05-23T08:57:49.808Z,100625.16
2023-05-23T09:01:52.945Z,100635.00
2023-05-23T09:05:54.837Z,100641.59
2023-05-23T09:09:56.571Z,100642.59
2023-05-23T09:13:58.692Z,100650.09
2023-05-23T09:18:03.838Z,100649.13
2023-05-23T09:22:05.698Z,100656.19
2023-05-23T09:26:08.924Z,100642.19
2023-05-23T09:30:11.660Z,100652.19
2023-05-23T09:34:13.831Z,100649.59
2023-05-23T09:38:15.496Z,100661.97
2023-05-23T09:42:23.432Z,100658.41
2023-05-23T09:46:28.838Z,100663.84
2023-05-23T09:50:33.425Z,100665.91
2023-05-23T09:54:35.279Z,100659.88
2023-05-23T09:58:38.686Z,100662.06
2023-05-23T10:02:43.127Z,100663.50
2023-05-23T10:06:53.451Z,100657.19
2023-05-23T10:10:57.739Z,100657.84
2023-05-23T10:15:04.738Z,100660.00
2023-05-23T10:19:17.967Z,100668.75
2023-05-23T10:23:19.774Z,100673.72
2023-05-23T10:27:21.518Z,100670.97
2023-05-23T10:31:24.497Z,100674.09
2023-05-23T10:35:46.837Z,100685.16
2023-05-23T10:40:06.178Z,100686.66
2023-05-23T10:44:21.178Z,100686.34
2023-05-23T10:48:29.540Z,100684.66
2023-05-23T10:52:39.977Z,100679.66
2023-05-23T10:56:41.675Z,100707.41
2023-05-23T11:01:16.775Z,100691.59
2023-05-23T11:05:21.067Z,100705.13
2023-05-23T11:09:23.024Z,100704.47
2023-05-23T11:13:24.621Z,100704.66
2023-05-23T11:17:33.921Z,100698.00
2023-05-23T11:21:35.589Z,100702.63
2023-05-23T11:25:51.912Z,100702.56
2023-05-23T11:30:10.208Z,100705.88
2023-05-23T11:34:12.123Z,100709.25
2023-05-23T11:38:16.981Z,100707.28
2023-05-23T11:42:18.496Z,100707.53
2023-05-23T11:46:20.348Z,100708.31
2023-05-23T11:50:22.162Z,100710.47
2023-05-23T11:54:26.026Z,100710.59
2023-05-23T11:58:39.551Z,100713.94
2023-05-23T12:02:42.610Z,100724.84
2023-05-23T12:06:48.446Z,100726.88
2023-05-23T12:10:56.700Z,100723.28
2023-05-23T12:14:58.925Z,100720.81
2023-05-23T12:19:06.892Z,100716.41
2023-05-23T12:23:08.403Z,100723.63
2023-05-23T12:27:10.249Z,100719.09
2023-05-23T12:31:19.574Z,100729.72
2023-05-23T12:35:21.512Z,100726.06
2023-05-23T12:39:29.002Z,100732.28
2023-05-23T12:43:30.443Z,100732.38
2023-05-23T12:47:31.918Z,100724.16
2023-05-23T12:51:33.463Z,100726.94
2023-05-23T12:55:34.913Z,100726.38
2023-05-23T12:59:36.374Z,100723.75
2023-05-23T13:03:37.911Z,100738.97
2023-05-23T13:07:39.427Z,100727.66
2023-05-23T13:11:41.415Z,100730.78
2023-05-23T13:15:43.381Z,100731.94
2023-05-23T13:19:45.673Z,100726.81
2023-05-23T13:23:47.202Z,100736.28
2023-05-23T13:27:49.409Z,100741.81
2023-05-23T13:31:51.200Z,100734.50
2023-05-23T13:35:53.905Z,100738.88
2023-05-23T13:39:55.390Z,100751.81
2023-05-23T13:43:56.918Z,100752.00
2023-05-23T13:47:58.398Z,100768.91
2023-05-23T13:51:59.907Z,100770.63
2023-05-23T13:56:01.656Z,100776.25
2023-05-23T14:00:03.712Z,100773.78
2023-05-23T14:04:06.955Z,100776.88
2023-05-23T14:08:08.826Z,100776.09
2023-05-23T14:12:10.767Z,100786.03
2023-05-23T14:16:12.452Z,100767.69
2023-05-23T14:20:13.931Z,100772.94
2023-05-23T14:24:15.646Z,100776.50
2023-05-23T14:28:17.124Z,100784.22
2023-05-23T14:32:18.897Z,100795.44
2023-05-23T14:36:20.412Z,100797.03
2023-05-23T14:40:21.980Z,100795.44
2023-05-23T14:44:23.504Z,100800.25
2023-05-23T14:48:25.104Z,100798.56
2023-05-23T14:52:26.772Z,100808.19
2023-05-23T14:56:28.445Z,100806.16
2023-05-23T15:00:29.952Z,100824.88
2023-05-23T15:04:32.075Z,100828.94
2023-05-23T15:08:33.859Z,100834.81
2023-05-23T15:12:35.503Z,100838.94
2023-05-23T15:16:37.456Z,100858.91
2023-05-23T15:20:39.126Z,100861.31
2023-05-23T15:24:41.191Z,100871.28
2023-05-23T15:28:42.691Z,100874.19
2023-05-23T15:32:44.196Z,100884.50
2023-05-23T15:36:45.699Z,100884.41
2023-05-23T15:40:48.866Z,100883.50
2023-05-23T15:44:51.098Z,100899.19
2023-05-23T15:48:52.670Z,100905.41
2023-05-23T15:52:54.170Z,100897.81
2023-05-23T15:56:55.628Z,100906.25
2023-05-23T16:00:57.193Z,100892.59
2023-05-23T16:04:58.768Z,100899.88
2023-05-23T16:09:00.269Z,100897.69
2023-05-23T16:13:02.190Z,100907.69
2023-05-23T16:17:05.953Z,100900.03
2023-05-23T16:21:07.562Z,100909.00
2023-05-23T16:25:10.501Z,100908.53
2023-05-23T16:29:12.369Z,100915.56
2023-05-23T16:33:14.114Z,100917.06
2023-05-23T16:37:15.613Z,100918.75
2023-05-23T16:41:17.206Z,100930.94
2023-05-23T16:45:18.829Z,100934.09
2023-05-23T16:49:20.360Z,100945.00
2023-05-23T16:53:22.093Z,100958.50
2023-05-23T16:57:23.658Z,100953.00
2023-05-23T17:01:25.613Z,100955.91
2023-05-23T17:05:27.175Z,100969.03
2023-05-23T17:09:28.791Z,100968.81
2023-05-23T17:13:31.700Z,100975.66
2023-05-23T17:17:33.244Z,100978.34
2023-05-23T17:21:34.928Z,100978.97
2023-05-23T17:25:37.152Z,100985.69
2023-05-23T17:29:38.671Z,101003.09
2023-05-23T17:33:40.357Z,101013.38
2023-05-23T17:37:43.762Z,101017.22
2023-05-23T17:41:46.194Z,101023.03
2023-05-23T17:45:47.956Z,101021.00
2023-05-23T17:49:49.495Z,101023.59
2023-05-23T17:53:53.614Z,101026.31
2023-05-23T17:57:55.320Z,101023.78
2023-05-23T18:01:56.777Z,101029.34
2023-05-23T18:05:58.313Z,101026.72
2023-05-23T18:10:00.006Z,101029.72
2023-05-23T18:14:02.729Z,101022.78
2023-05-23T18:18:04.604Z,101035.16
2023-05-23T18:22:06.504Z,101034.97
2023-05-23T18:26:09.083Z,101049.25
2023-05-23T18:30:11.008Z,101047.28
2023-05-23T18:34:12.584Z,101060.72
2023-05-23T18:38:14.140Z,101064.84
2023-05-23T18:42:15.683Z,101072.56
2023-05-23T18:46:17.323Z,101071.63
2023-05-23T18:50:18.944Z,101083.13
2023-05-23T18:54:20.541Z,101090.41
2023-05-23T18:58:22.102Z,101100.78
2023-05-23T19:02:24.044Z,101106.13
2023-05-23T19:06:28.889Z,101102.47
2023-05-23T19:10:30.405Z,101103.09
2023-05-23T19:14:32.129Z,101110.94
2023-05-23T19:18:33.709Z,101120.59
2023-05-23T19:22:50.169Z,101131.00
2023-05-23T19:26:52.193Z,101127.78
2023-05-23T19:30:53.702Z,101133.66
2023-05-23T19:34:55.288Z,101140.28
2023-05-23T19:38:56.900Z,101144.72
2023-05-23T19:42:58.458Z,101155.53
2023-05-23T19:47:00.055Z,101154.28
2023-05-23T19:51:01.650Z,101154.44
2023-05-23T19:55:04.080Z,101166.97
2023-05-23T19:59:05.646Z,101170.84
2023-05-23T20:03:07.290Z,101175.50
2023-05-23T20:07:08.848Z,101174.50
2023-05-23T20:11:10.718Z,101179.34
2023-05-23T20:15:12.313Z,101187.59
2023-05-23T20:19:14.802Z,101184.78
2023-05-23T20:23:16.441Z,101181.50
2023-05-23T20:27:18.028Z,101199.78
2023-05-23T20:31:19.553Z,101201.00
2023-05-23T20:35:22.131Z,101201.50
2023-05-23T20:39:26.654Z,101207.91
2023-05-23T20:43:28.869Z,101214.28
2023-05-23T20:47:30.546Z,101223.75
2023-05-23T20:51:32.375Z,101210.59
2023-05-23T20:55:38.101Z,101216.69
2023-05-23T20:59:39.605Z,101228.34
2023-05-23T21:03:41.136Z,101218.66
2023-05-23T21:07:42.775Z,101223.41
2023-05-23T21:11:44.656Z,101213.09
2023-05-23T21:15:46.157Z,101224.63
2023-05-23T21:19:47.708Z,101219.00
2023-05-23T21:23:49.192Z,101231.22
2023-05-23T21:27:50.944Z,101231.41
2023-05-23T21:31:52.662Z,101229.72
2023-05-23T21:35:54.467Z,101237.97
2023-05-23T21:39:56.009Z,101241.44
2023-05-23T21:43:57.630Z,101237.13
2023-05-23T21:47:59.200Z,101238.31
2023-05-23T21:52:04.710Z,101249.47
2023-05-23T21:56:06.419Z,101244.47
2023-05-23T22:00:12.338Z,101251.66
2023-05-23T22:04:14.616Z,101245.75
2023-05-23T22:08:16.276Z,101251.53
2023-05-23T22:12:18.981Z,101247.03
2023-05-23T22:16:21.990Z,101245.44
2023-05-23T22:20:23.761Z,101245.28
2023-05-23T22:24:26.262Z,101257.63
2023-05-23T22:28:27.742Z,101264.16
2023-05-23T22:32:29.317Z,101270.88
2023-05-23T22:36:33.349Z,101265.66
2023-05-23T22:40:34.933Z,101266.13
2023-05-23T22:44:36.705Z,101272.94
2023-05-23T22:48:39.052Z,101272.03
2023-05-23T22:52:40.549Z,101273.19
2023-05-23T22:56:42.080Z,101268.56
2023-05-23T23:00:45.206Z,101268.78
2023-05-23T23:04:48.240Z,101273.75
2023-05-23T23:08:49.955Z,101264.06
2023-05-23T23:12:51.489Z,101274.56
2023-05-23T23:16:53.376Z,101271.78
2023-05-23T23:20:55.016Z,101272.00
2023-05-23T23:24:56.477Z,101273.88
2023-05-23T23:28:57.964Z,101277.22
2023-05-23T23:32:59.466Z,101276.97
2023-05-23T23:37:00.947Z,101275.47
2023-05-23T23:41:02.434Z,101282.88
2023-05-23T23:45:04.844Z,101278.16
2023-05-23T23:49:06.389Z,101283.09
2023-05-23T23:53:07.903Z,101274.91
2023-05-23T23:57:13.701Z,101277.81
